createdAt,value
2023-02-21T00:00:05.353Z,31.00
2023-02-21T00:02:50.308Z,29.00
2023-02-21T00:05:35.316Z,29.00
2023-02-21T00:08:20.604Z,27.80
2023-02-21T00:11:05.721Z,28.60
2023-02-21T00:13:54.273Z,29.75
2023-02-21T00:16:39.408Z,28.00
2023-02-21T00:19:24.307Z,29.25
2023-02-21T00:22:10.024Z,29.25
2023-02-21T00:24:54.772Z,29.00
2023-02-21T00:27:40.414Z,29.00
2023-02-21T00:30:25.805Z,28.33
2023-02-21T00:33:11.040Z,28.25
2023-02-21T00:35:55.929Z,27.25
2023-02-21T00:38:41.162Z,27.50
2023-02-21T00:41:26.808Z,27.00
2023-02-21T00:44:11.767Z,27.00
2023-02-21T00:46:57.423Z,24.00
2023-02-21T00:49:42.325Z,26.00
2023-02-21T00:52:27.198Z,27.00
2023-02-21T00:55:12.381Z,24.80
2023-02-21T00:57:57.233Z,25.50
2023-02-21T01:00:43.281Z,26.00
2023-02-21T01:03:28.715Z,23.75
2023-02-21T01:06:13.645Z,24.00
2023-02-21T01:09:02.107Z,25.00
2023-02-21T01:11:47.491Z,24.60
2023-02-21T01:14:32.376Z,26.00
2023-02-21T01:17:17.337Z,23.75
2023-02-21T01:20:02.528Z,25.00
2023-02-21T01:22:47.956Z,24.20
2023-02-21T01:25:33.574Z,23.20
2023-02-21T01:28:18.611Z,24.20
2023-02-21T01:31:03.523Z,24.25
2023-02-21T01:33:53.084Z,25.20
2023-02-21T01:36:38.027Z,26.00
2023-02-21T01:39:22.927Z,25.00
2023-02-21T01:42:07.828Z,24.60
2023-02-21T01:44:56.849Z,22.25
2023-02-21T01:47:42.728Z,25.50
2023-02-21T01:50:31.093Z,24.00
2023-02-21T01:53:15.953Z,23.40
2023-02-21T01:56:02.455Z,24.00
2023-02-21T01:58:49.527Z,24.00
2023-02-21T02:01:42.047Z,24.40
2023-02-21T02:04:27.268Z,24.75
2023-02-21T02:07:12.228Z,24.40
2023-02-21T02:09:57.160Z,23.25
2023-02-21T02:12:35.484Z,24.00
2023-02-21T02:15:19.565Z,26.00
2023-02-21T02:17:46.030Z,25.00
2023-02-21T02:20:12.494Z,26.50
2023-02-21T02:22:59.262Z,27.00
2023-02-21T02:25:39.695Z,25.00
2023-02-21T02:28:21.682Z,27.00
2023-02-21T02:30:51.057Z,25.40
2023-02-21T02:33:29.964Z,26.75
2023-02-21T02:36:00.761Z,26.00
2023-02-21T02:38:33.843Z,26.75
2023-02-21T02:41:13.261Z,26.40
2023-02-21T02:43:51.658Z,27.25
2023-02-21T02:46:22.121Z,26.00
2023-02-21T02:49:14.693Z,26.80
2023-02-21T02:51:41.213Z,24.50
2023-02-21T02:54:07.765Z,26.00
2023-02-21T02:56:36.942Z,25.00
2023-02-21T02:59:07.944Z,24.00
2023-02-21T03:01:50.012Z,27.75
2023-02-21T03:04:27.389Z,27.00
2023-02-21T03:07:17.711Z,26.60
2023-02-21T03:09:44.200Z,26.25
2023-02-21T03:12:16.812Z,26.00
2023-02-21T03:15:09.868Z,25.75
2023-02-21T03:17:40.003Z,26.00
2023-02-21T03:20:07.684Z,26.00
2023-02-21T03:22:34.364Z,26.40
2023-02-21T03:25:01.933Z,24.75
2023-02-21T03:27:29.277Z,26.60
2023-02-21T03:29:57.562Z,26.00
2023-02-21T03:32:31.981Z,25.20
2023-02-21T03:34:58.516Z,26.75
2023-02-21T03:37:33.158Z,27.75
2023-02-21T03:39:59.992Z,27.75
2023-02-21T03:42:26.483Z,26.80
2023-02-21T03:44:52.987Z,28.00
2023-02-21T03:47:19.508Z,28.00
2023-02-21T03:49:46.059Z,26.20
2023-02-21T03:52:12.845Z,25.75
2023-02-21T03:54:39.947Z,24.80
2023-02-21T03:57:06.710Z,24.00
2023-02-21T03:59:33.245Z,26.40
2023-02-21T04:01:59.869Z,27.00
2023-02-21T04:04:26.380Z,27.50
2023-02-21T04:06:52.837Z,27.00
2023-02-21T04:09:19.444Z,27.25
2023-02-21T04:11:46.361Z,25.80
2023-02-21T04:14:14.019Z,27.00
2023-02-21T04:16:41.420Z,25.00
2023-02-21T04:19:07.899Z,27.00
2023-02-21T04:21:34.350Z,26.75
2023-02-21T04:24:00.803Z,25.25
2023-02-21T04:26:30.029Z,26.00
2023-02-21T04:28:56.801Z,27.20
2023-02-21T04:31:23.508Z,27.00
2023-02-21T04:33:54.907Z,26.00
2023-02-21T04:36:29.027Z,26.67
2023-02-21T04:38:55.602Z,28.00
2023-02-21T04:41:22.459Z,27.00
2023-02-21T04:43:49.016Z,25.00
2023-02-21T04:46:16.527Z,26.00
2023-02-21T04:48:45.241Z,26.00
2023-02-21T04:51:15.693Z,27.00
2023-02-21T04:53:42.230Z,26.00
2023-02-21T04:56:08.709Z,28.00
2023-02-21T04:58:44.951Z,26.60
2023-02-21T05:01:13.226Z,26.00
2023-02-21T05:03:39.980Z,27.25
2023-02-21T05:06:06.554Z,25.00
2023-02-21T05:08:33.048Z,26.00
2023-02-21T05:10:59.620Z,27.80
2023-02-21T05:13:26.100Z,26.00
2023-02-21T05:15:52.585Z,25.25
2023-02-21T05:18:22.731Z,25.00
2023-02-21T05:20:49.985Z,26.00
2023-02-21T05:23:17.241Z,26.25
2023-02-21T05:25:43.710Z,24.00
2023-02-21T05:28:10.300Z,26.00
2023-02-21T05:30:36.860Z,24.75
2023-02-21T05:33:03.379Z,26.00
2023-02-21T05:35:29.870Z,25.67
2023-02-21T05:37:56.418Z,25.25
2023-02-21T05:40:22.971Z,25.00
2023-02-21T05:42:50.098Z,23.60
2023-02-21T05:45:16.565Z,25.20
2023-02-21T05:47:43.094Z,25.00
2023-02-21T05:50:09.710Z,26.75
2023-02-21T05:52:36.224Z,24.80
2023-02-21T05:55:02.700Z,26.50
2023-02-21T05:57:29.170Z,26.00
2023-02-21T05:59:57.961Z,25.40
2023-02-21T06:02:24.477Z,26.00
2023-02-21T06:04:51.127Z,26.00
2023-02-21T06:07:18.831Z,26.00
2023-02-21T06:09:45.346Z,25.00
2023-02-21T06:12:11.873Z,26.25
2023-02-21T06:14:38.402Z,27.00
2023-02-21T06:17:04.856Z,25.60
2023-02-21T06:19:33.313Z,26.00
2023-02-21T06:21:59.973Z,27.00
2023-02-21T06:24:26.459Z,26.40
2023-02-21T06:26:52.943Z,27.00
2023-02-21T06:29:19.363Z,27.00
2023-02-21T06:31:45.930Z,27.00
2023-02-21T06:34:12.600Z,27.00
2023-02-21T06:36:39.719Z,26.75
2023-02-21T06:39:08.094Z,27.00
2023-02-21T06:41:34.683Z,26.50
2023-02-21T06:44:01.164Z,26.00
2023-02-21T06:46:29.927Z,27.50
2023-02-21T06:48:56.521Z,26.75
2023-02-21T06:51:29.316Z,26.20
2023-02-21T06:53:56.454Z,26.00
2023-02-21T06:56:23.106Z,25.75
2023-02-21T06:58:49.598Z,26.50
2023-02-21T07:01:16.327Z,26.00
2023-02-21T07:03:44.480Z,24.80
2023-02-21T07:06:11.004Z,27.00
2023-02-21T07:08:37.569Z,26.80
2023-02-21T07:11:05.758Z,28.00
2023-02-21T07:13:32.420Z,28.00
2023-02-21T07:15:59.661Z,27.40
2023-02-21T07:18:26.193Z,28.00
2023-02-21T07:20:52.669Z,27.75
2023-02-21T07:23:19.156Z,27.00
2023-02-21T07:25:45.637Z,30.25
2023-02-21T07:28:12.494Z,30.00
2023-02-21T07:30:39.159Z,26.00
2023-02-21T07:33:05.648Z,28.25
2023-02-21T07:35:32.464Z,26.40
2023-02-21T07:37:58.961Z,26.00
2023-02-21T07:40:25.764Z,30.50
2023-02-21T07:42:52.175Z,25.50
2023-02-21T07:45:18.680Z,26.00
2023-02-21T07:47:47.902Z,27.60
2023-02-21T07:50:15.769Z,26.40
2023-02-21T07:52:42.324Z,28.00
2023-02-21T07:55:09.055Z,27.50
2023-02-21T07:57:35.528Z,26.00
2023-02-21T08:00:02.042Z,26.00
2023-02-21T08:02:28.625Z,27.00
2023-02-21T08:04:55.135Z,27.20
2023-02-21T08:07:21.781Z,25.80
2023-02-21T08:09:48.293Z,27.00
2023-02-21T08:12:14.826Z,24.00
2023-02-21T08:14:41.360Z,26.00
2023-02-21T08:17:07.985Z,25.80
2023-02-21T08:19:34.511Z,23.50
2023-02-21T08:22:01.032Z,24.33
2023-02-21T08:24:27.618Z,25.60
2023-02-21T08:26:54.223Z,25.60
2023-02-21T08:29:20.965Z,24.40
2023-02-21T08:31:47.703Z,24.00
2023-02-21T08:34:14.705Z,24.00
2023-02-21T08:36:42.650Z,22.60
2023-02-21T08:39:09.727Z,22.25
2023-02-21T08:41:42.320Z,21.20
2023-02-21T08:44:09.238Z,22.20
2023-02-21T08:46:36.015Z,22.00
2023-02-21T08:49:03.778Z,22.00
2023-02-21T08:51:31.260Z,22.00
2023-02-21T08:53:57.826Z,21.50
2023-02-21T08:56:24.948Z,20.25
2023-02-21T08:58:51.982Z,21.00
2023-02-21T09:01:18.724Z,22.00
2023-02-21T09:03:45.360Z,20.50
2023-02-21T09:06:11.923Z,20.40
2023-02-21T09:08:39.159Z,19.50
2023-02-21T09:11:05.704Z,19.20
2023-02-21T09:13:35.401Z,19.00
2023-02-21T09:16:02.715Z,19.60
2023-02-21T09:18:29.675Z,19.00
2023-02-21T09:20:57.366Z,19.00
2023-02-21T09:23:24.853Z,17.50
2023-02-21T09:25:51.565Z,13.25
2023-02-21T09:28:18.549Z,16.50
2023-02-21T09:30:45.196Z,18.80
2023-02-21T09:33:12.944Z,18.00
2023-02-21T09:35:39.461Z,17.00
2023-02-21T09:38:09.123Z,15.00
2023-02-21T09:41:00.063Z,16.60
2023-02-21T09:43:26.547Z,17.50
2023-02-21T09:45:56.643Z,15.00
2023-02-21T09:48:24.290Z,16.50
2023-02-21T09:50:53.105Z,17.60
2023-02-21T09:53:24.748Z,19.75
2023-02-21T09:55:54.090Z,17.50
2023-02-21T09:58:21.203Z,17.60
2023-02-21T10:00:47.929Z,17.00
2023-02-21T10:03:17.379Z,20.00
2023-02-21T10:05:45.831Z,19.00
2023-02-21T10:08:37.437Z,19.00
2023-02-21T10:11:24.121Z,20.00
2023-02-21T10:13:59.490Z,21.00
2023-02-21T10:16:55.223Z,21.00
2023-02-21T10:19:23.812Z,20.00
2023-02-21T10:21:51.169Z,20.25
2023-02-21T10:24:27.612Z,20.40
2023-02-21T10:26:59.801Z,19.50
2023-02-21T10:29:30.443Z,18.00
2023-02-21T10:32:03.395Z,19.50
2023-02-21T10:34:31.542Z,15.00
2023-02-21T10:37:05.191Z,15.75
2023-02-21T10:39:36.753Z,14.00
2023-02-21T10:42:03.557Z,15.00
2023-02-21T10:44:32.535Z,16.20
2023-02-21T10:47:05.569Z,16.00
2023-02-21T10:49:40.980Z,15.00
2023-02-21T10:52:17.095Z,16.60
2023-02-21T10:54:59.898Z,18.00
2023-02-21T10:57:27.379Z,18.40
2023-02-21T10:59:53.988Z,18.25
2023-02-21T11:02:29.725Z,16.80
2023-02-21T11:04:57.190Z,18.00
2023-02-21T11:07:24.359Z,15.50
2023-02-21T11:09:51.235Z,17.00
2023-02-21T11:12:22.556Z,18.00
2023-02-21T11:14:51.820Z,15.80
2023-02-21T11:17:22.332Z,16.80
2023-02-21T11:19:48.841Z,18.00
2023-02-21T11:22:16.417Z,16.80
2023-02-21T11:24:48.877Z,14.75
2023-02-21T11:27:15.617Z,17.25
2023-02-21T11:29:47.319Z,14.50
2023-02-21T11:32:20.341Z,14.00
2023-02-21T11:34:48.713Z,13.00
2023-02-21T11:37:15.856Z,13.75
2023-02-21T11:39:50.071Z,15.20
2023-02-21T11:42:31.049Z,13.75
2023-02-21T11:45:06.753Z,15.00
2023-02-21T11:47:39.418Z,15.00
2023-02-21T11:50:05.943Z,12.00
2023-02-21T11:52:48.290Z,10.20
2023-02-21T11:55:16.275Z,10.60
2023-02-21T11:57:42.792Z,10.20
2023-02-21T12:00:17.413Z,12.00
2023-02-21T12:02:55.593Z,10.25
2023-02-21T12:05:31.096Z,11.00
2023-02-21T12:08:16.046Z,9.20
2023-02-21T12:10:48.783Z,11.00
2023-02-21T12:13:22.876Z,8.25
2023-02-21T12:16:01.627Z,10.00
2023-02-21T12:18:46.755Z,9.00
2023-02-21T12:21:16.586Z,10.00
2023-02-21T12:23:46.044Z,10.00
2023-02-21T12:26:15.265Z,11.80
2023-02-21T12:29:00.727Z,11.25
2023-02-21T12:31:30.055Z,10.00
2023-02-21T12:33:57.329Z,10.00
2023-02-21T12:36:45.282Z,11.00
2023-02-21T12:39:14.530Z,11.00
2023-02-21T12:41:41.031Z,11.00
2023-02-21T12:44:22.200Z,12.00
2023-02-21T12:47:11.629Z,11.00
2023-02-21T12:49:55.013Z,11.00
2023-02-21T12:52:41.019Z,9.80
2023-02-21T12:55:14.569Z,10.50
2023-02-21T12:58:01.379Z,10.00
2023-02-21T13:00:37.164Z,9.00
2023-02-21T13:03:22.533Z,11.40
2023-02-21T13:05:52.809Z,11.00
2023-02-21T13:08:51.090Z,9.00
2023-02-21T13:11:26.000Z,8.00
2023-02-21T13:13:52.445Z,8.00
2023-02-21T13:16:20.029Z,9.00
2023-02-21T13:18:59.631Z,9.75
2023-02-21T13:21:30.182Z,8.00
2023-02-21T13:24:31.150Z,8.25
2023-02-21T13:27:16.139Z,7.33
2023-02-21T13:29:42.998Z,8.00
2023-02-21T13:32:12.421Z,9.00
2023-02-21T13:34:45.501Z,9.50
2023-02-21T13:37:32.698Z,10.40
2023-02-21T13:40:07.308Z,10.00
2023-02-21T13:42:34.962Z,9.00
2023-02-21T13:45:10.303Z,8.60
2023-02-21T13:47:55.662Z,10.00
2023-02-21T13:50:27.972Z,9.00
2023-02-21T13:53:03.156Z,9.60
2023-02-21T13:55:31.561Z,10.00
2023-02-21T13:57:58.103Z,10.00
2023-02-21T14:00:24.575Z,9.40
2023-02-21T14:03:01.460Z,10.40
2023-02-21T14:05:50.110Z,10.25
2023-02-21T14:08:16.558Z,8.40
2023-02-21T14:10:50.272Z,11.00
2023-02-21T14:13:36.538Z,11.40
2023-02-21T14:16:24.026Z,11.00
2023-02-21T14:19:01.606Z,10.75
2023-02-21T14:21:35.855Z,9.50
2023-02-21T14:24:14.248Z,9.33
2023-02-21T14:26:52.930Z,10.00
2023-02-21T14:29:25.564Z,11.00
2023-02-21T14:32:02.342Z,10.00
2023-02-21T14:34:37.997Z,8.20
2023-02-21T14:37:11.585Z,9.40
2023-02-21T14:39:39.791Z,10.00
2023-02-21T14:42:06.427Z,10.00
2023-02-21T14:44:40.077Z,10.60
2023-02-21T14:47:31.692Z,10.60
2023-02-21T14:50:08.106Z,8.50
2023-02-21T14:52:43.046Z,8.60
2023-02-21T14:55:18.449Z,10.00
2023-02-21T14:57:44.900Z,11.00
2023-02-21T15:00:12.212Z,9.40
2023-02-21T15:02:41.495Z,9.50
2023-02-21T15:05:07.987Z,11.00
2023-02-21T15:07:37.759Z,11.00
2023-02-21T15:10:11.321Z,10.60
2023-02-21T15:12:40.906Z,10.00
2023-02-21T15:15:19.645Z,10.80
2023-02-21T15:17:55.153Z,10.50
2023-02-21T15:20:21.639Z,8.50
2023-02-21T15:22:55.245Z,11.20
2023-02-21T15:25:21.868Z,12.25
2023-02-21T15:27:49.793Z,8.60
2023-02-21T15:30:19.130Z,9.00
2023-02-21T15:32:53.070Z,11.00
2023-02-21T15:35:22.885Z,9.60
2023-02-21T15:37:49.596Z,9.40
2023-02-21T15:40:24.095Z,10.33
2023-02-21T15:42:51.743Z,9.67
2023-02-21T15:45:18.159Z,9.50
2023-02-21T15:47:44.787Z,11.40
2023-02-21T15:50:17.548Z,10.00
2023-02-21T15:52:54.372Z,9.75
2023-02-21T15:55:21.020Z,11.80
2023-02-21T15:58:07.801Z,9.00
2023-02-21T16:00:57.664Z,10.25
2023-02-21T16:03:39.552Z,10.40
2023-02-21T16:06:14.189Z,9.00
2023-02-21T16:08:59.215Z,11.00
2023-02-21T16:11:46.069Z,9.20
2023-02-21T16:14:16.750Z,12.80
2023-02-21T16:16:43.475Z,9.25
2023-02-21T16:19:10.481Z,10.00
2023-02-21T16:21:36.908Z,9.00
2023-02-21T16:24:27.082Z,11.00
2023-02-21T16:27:24.034Z,9.00
2023-02-21T16:29:51.336Z,10.00
2023-02-21T16:32:19.538Z,10.00
2023-02-21T16:34:46.376Z,8.50
2023-02-21T16:37:14.030Z,8.60
2023-02-21T16:39:41.213Z,11.00
2023-02-21T16:42:07.850Z,9.25
2023-02-21T16:44:34.415Z,10.00
2023-02-21T16:47:00.906Z,11.75
2023-02-21T16:49:27.470Z,10.00
2023-02-21T16:51:53.954Z,9.40
2023-02-21T16:54:20.472Z,10.75
2023-02-21T16:56:50.583Z,9.20
2023-02-21T16:59:19.619Z,10.00
2023-02-21T17:01:46.148Z,11.00
2023-02-21T17:04:20.634Z,11.00
2023-02-21T17:06:48.018Z,10.75
2023-02-21T17:09:18.951Z,13.00
2023-02-21T17:11:45.496Z,11.75
2023-02-21T17:14:11.970Z,11.25
2023-02-21T17:16:38.426Z,9.60
2023-02-21T17:19:04.952Z,10.40
2023-02-21T17:21:32.289Z,12.00
2023-02-21T17:23:59.303Z,9.20
2023-02-21T17:26:25.851Z,9.80
2023-02-21T17:28:52.315Z,11.00
2023-02-21T17:31:19.377Z,12.25
2023-02-21T17:33:45.988Z,10.00
2023-02-21T17:36:19.182Z,12.00
2023-02-21T17:38:46.039Z,9.60
2023-02-21T17:41:12.761Z,11.75
2023-02-21T17:43:39.255Z,12.00
2023-02-21T17:46:08.942Z,14.00
2023-02-21T17:48:35.415Z,15.00
2023-02-21T17:51:03.596Z,17.20
2023-02-21T17:53:30.062Z,14.60
2023-02-21T17:55:57.110Z,16.00
2023-02-21T17:58:23.812Z,15.00
2023-02-21T18:00:50.702Z,13.00
2023-02-21T18:03:17.141Z,13.00
2023-02-21T18:05:43.733Z,14.00
2023-02-21T18:08:10.250Z,14.00
2023-02-21T18:10:36.766Z,13.00
2023-02-21T18:13:04.835Z,12.00
2023-02-21T18:15:31.356Z,15.00
2023-02-21T18:18:03.940Z,13.00
2023-02-21T18:20:31.805Z,11.00
2023-02-21T18:22:58.354Z,11.50
2023-02-21T18:25:26.857Z,12.00
2023-02-21T18:27:53.460Z,10.25
2023-02-21T18:30:20.137Z,15.00
2023-02-21T18:32:46.960Z,11.00
2023-02-21T18:35:14.803Z,11.00
2023-02-21T18:37:41.964Z,10.00
2023-02-21T18:40:09.143Z,12.00
2023-02-21T18:42:35.861Z,12.50
2023-02-21T18:45:02.468Z,12.50
2023-02-21T18:47:30.962Z,13.00
2023-02-21T18:49:57.438Z,12.00
2023-02-21T18:52:24.107Z,12.00
2023-02-21T18:54:51.292Z,14.80
2023-02-21T18:57:19.256Z,12.00
2023-02-21T18:59:45.918Z,10.75
2023-02-21T19:02:14.766Z,13.00
2023-02-21T19:04:43.009Z,13.40
2023-02-21T19:07:10.723Z,14.80
2023-02-21T19:09:37.233Z,18.20
2023-02-21T19:12:03.901Z,14.00
2023-02-21T19:14:30.744Z,15.00
2023-02-21T19:16:57.371Z,16.00
2023-02-21T19:19:23.887Z,16.00
2023-02-21T19:21:50.358Z,14.50
2023-02-21T19:24:16.881Z,15.00
2023-02-21T19:26:43.472Z,14.50
2023-02-21T19:29:11.017Z,14.67
2023-02-21T19:31:37.586Z,16.00
2023-02-21T19:34:05.016Z,15.33
2023-02-21T19:36:31.623Z,12.75
2023-02-21T19:38:58.054Z,14.00
2023-02-21T19:41:25.818Z,11.60
2023-02-21T19:43:53.484Z,12.00
2023-02-21T19:46:24.539Z,18.00
2023-02-21T19:48:51.642Z,14.00
2023-02-21T19:51:18.881Z,12.00
2023-02-21T19:53:45.823Z,16.00
2023-02-21T19:56:12.333Z,16.25
2023-02-21T19:58:39.408Z,13.50
2023-02-21T20:01:06.783Z,18.40
2023-02-21T20:03:33.796Z,17.00
2023-02-21T20:06:01.470Z,16.80
2023-02-21T20:08:29.405Z,16.00
2023-02-21T20:10:56.430Z,17.50
2023-02-21T20:13:23.194Z,16.00
2023-02-21T20:15:50.823Z,12.00
2023-02-21T20:18:17.394Z,14.20
2023-02-21T20:20:43.874Z,13.67
2023-02-21T20:23:11.248Z,12.00
2023-02-21T20:25:37.713Z,11.00
2023-02-21T20:28:04.875Z,12.20
2023-02-21T20:30:31.432Z,13.50
2023-02-21T20:32:58.868Z,14.00
2023-02-21T20:35:25.325Z,13.75
2023-02-21T20:37:54.031Z,15.25
2023-02-21T20:40:20.500Z,14.00
2023-02-21T20:42:46.950Z,15.00
2023-02-21T20:45:13.492Z,16.00
2023-02-21T20:47:39.974Z,16.00
2023-02-21T20:50:07.608Z,16.00
2023-02-21T20:52:37.001Z,16.40
2023-02-21T20:55:03.555Z,15.20
2023-02-21T20:57:30.887Z,14.00
2023-02-21T20:59:57.369Z,15.40
2023-02-21T21:02:24.565Z,15.00
2023-02-21T21:04:51.083Z,13.50
2023-02-21T21:07:23.397Z,17.00
2023-02-21T21:09:50.328Z,17.00
2023-02-21T21:12:18.386Z,16.00
2023-02-21T21:14:46.294Z,20.00
2023-02-21T21:17:15.186Z,18.00
2023-02-21T21:19:42.849Z,15.00
2023-02-21T21:22:10.498Z,16.50
2023-02-21T21:24:37.843Z,18.60
2023-02-21T21:27:10.114Z,17.75
2023-02-21T21:29:43.570Z,19.40
2023-02-21T21:32:14.949Z,17.60
2023-02-21T21:34:45.706Z,22.80
2023-02-21T21:37:12.268Z,20.00
2023-02-21T21:39:39.001Z,17.75
2023-02-21T21:42:08.949Z,17.25
2023-02-21T21:44:39.960Z,18.60
2023-02-21T21:47:08.027Z,20.00
2023-02-21T21:49:37.509Z,19.50
2023-02-21T21:52:04.646Z,19.20
2023-02-21T21:54:35.917Z,19.80
2023-02-21T21:57:04.222Z,20.60
2023-02-21T21:59:32.424Z,21.00
2023-02-21T22:01:59.419Z,21.75
2023-02-21T22:04:29.390Z,21.40
2023-02-21T22:06:56.644Z,22.00
2023-02-21T22:09:25.534Z,21.25
2023-02-21T22:11:52.870Z,24.00
2023-02-21T22:14:20.279Z,23.00
2023-02-21T22:16:48.194Z,22.40
2023-02-21T22:19:15.583Z,24.00
2023-02-21T22:21:44.055Z,23.50
2023-02-21T22:24:11.518Z,23.25
2023-02-21T22:26:40.948Z,24.00
2023-02-21T22:29:07.417Z,24.00
2023-02-21T22:31:34.610Z,23.00
2023-02-21T22:34:02.318Z,23.00
2023-02-21T22:36:31.181Z,23.00
2023-02-21T22:38:58.033Z,23.60
2023-02-21T22:41:26.767Z,22.00
2023-02-21T22:43:54.549Z,22.00
2023-02-21T22:46:24.270Z,24.00
2023-02-21T22:48:50.802Z,22.00
2023-02-21T22:51:18.061Z,22.00
2023-02-21T22:53:51.207Z,22.00
2023-02-21T22:56:23.526Z,22.00
2023-02-21T22:58:50.735Z,20.00
2023-02-21T23:01:20.952Z,22.00
2023-02-21T23:03:47.795Z,21.20
2023-02-21T23:06:14.608Z,20.00
2023-02-21T23:08:41.637Z,20.00
2023-02-21T23:11:08.171Z,20.40
2023-02-21T23:13:34.663Z,20.00
2023-02-21T23:16:04.178Z,20.00
2023-02-21T23:18:31.543Z,21.20
2023-02-21T23:20:58.699Z,22.00
2023-02-21T23:23:27.148Z,19.20
2023-02-21T23:25:54.338Z,21.80
2023-02-21T23:28:20.779Z,22.00
2023-02-21T23:30:48.945Z,21.00
2023-02-21T23:33:26.412Z,24.00
2023-02-21T23:35:53.615Z,25.25
2023-02-21T23:38:22.757Z,25.40
2023-02-21T23:40:56.135Z,26.00
2023-02-21T23:43:29.467Z,26.00
2023-02-21T23:46:00.368Z,26.60
2023-02-21T23:48:27.187Z,24.75
2023-02-21T23:50:57.738Z,24.00
2023-02-21T23:53:27.936Z,25.50
2023-02-21T23:56:00.523Z,22.50
2023-02-21T23:58:28.146Z,26.00
